createdAt,value
2019-04-29T00:01:59.637Z,13.83
2019-04-29T00:04:29.258Z,13.80
2019-04-29T00:06:59.276Z,13.87
2019-04-29T00:09:30.972Z,12.97
2019-04-29T00:12:00.444Z,13.30
2019-04-29T00:14:31.010Z,13.07
2019-04-29T00:17:05.267Z,12.20
2019-04-29T00:19:51.468Z,13.10
2019-04-29T00:22:21.032Z,12.77
2019-04-29T00:24:50.598Z,14.00
2019-04-29T00:27:20.306Z,15.40
2019-04-29T00:29:50.197Z,14.63
2019-04-29T00:32:19.769Z,15.27
2019-04-29T00:34:49.316Z,14.03
2019-04-29T00:37:28.758Z,13.03
2019-04-29T00:39:59.951Z,13.80
2019-04-29T00:42:38.410Z,13.83
2019-04-29T00:45:09.156Z,11.83
2019-04-29T00:47:38.710Z,12.73
2019-04-29T00:50:08.876Z,11.33
2019-04-29T00:52:38.426Z,10.57
2019-04-29T00:55:10.013Z,10.17
2019-04-29T00:57:39.569Z,9.23
2019-04-29T01:00:12.682Z,8.47
2019-04-29T01:02:42.413Z,8.80
2019-04-29T01:05:14.375Z,8.07
2019-04-29T01:07:43.999Z,8.07
2019-04-29T01:10:13.983Z,8.63
2019-04-29T01:12:43.702Z,7.80
2019-04-29T01:15:13.662Z,6.73
2019-04-29T01:17:43.371Z,7.67
2019-04-29T01:20:13.254Z,7.87
2019-04-29T01:22:43.710Z,6.77
2019-04-29T01:25:13.728Z,6.87
2019-04-29T01:27:47.870Z,6.80
2019-04-29T01:30:54.865Z,7.40
2019-04-29T01:33:24.996Z,6.97
2019-04-29T01:36:12.516Z,7.58
2019-04-29T01:38:42.227Z,7.70
2019-04-29T01:41:13.420Z,7.53
2019-04-29T01:44:00.772Z,7.67
2019-04-29T01:46:31.207Z,8.77
2019-04-29T01:49:00.794Z,7.97
2019-04-29T01:51:30.417Z,7.57
2019-04-29T01:54:00.038Z,8.67
2019-04-29T01:56:29.588Z,9.23
2019-04-29T01:58:59.343Z,9.23
2019-04-29T02:01:28.895Z,9.87
2019-04-29T02:03:58.446Z,9.23
2019-04-29T02:06:28.414Z,9.20
2019-04-29T02:08:57.985Z,9.10
2019-04-29T02:11:27.531Z,8.47
2019-04-29T02:13:57.159Z,8.17
2019-04-29T02:16:26.711Z,7.87
2019-04-29T02:18:56.265Z,6.83
2019-04-29T02:21:26.390Z,7.77
2019-04-29T02:23:57.598Z,7.60
2019-04-29T02:26:28.181Z,7.07
2019-04-29T02:28:57.742Z,6.60
2019-04-29T02:31:40.973Z,7.00
2019-04-29T02:34:10.667Z,7.57
2019-04-29T02:36:40.744Z,7.07
2019-04-29T02:39:12.217Z,7.53
2019-04-29T02:41:52.649Z,7.43
2019-04-29T02:44:22.357Z,7.70
2019-04-29T02:46:52.063Z,7.73
2019-04-29T02:49:21.774Z,7.67
2019-04-29T02:51:54.284Z,7.83
2019-04-29T02:54:25.497Z,8.13
2019-04-29T02:57:05.370Z,8.80
2019-04-29T02:59:40.073Z,8.10
2019-04-29T03:02:13.667Z,8.43
2019-04-29T03:05:01.739Z,8.83
2019-04-29T03:07:31.281Z,8.47
2019-04-29T03:10:01.670Z,8.63
2019-04-29T03:12:31.280Z,7.43
2019-04-29T03:15:01.682Z,8.67
2019-04-29T03:17:31.868Z,8.93
2019-04-29T03:20:21.575Z,8.50
2019-04-29T03:22:53.640Z,8.23
2019-04-29T03:25:23.177Z,8.17
2019-04-29T03:27:53.344Z,8.10
2019-04-29T03:30:22.956Z,7.90
2019-04-29T03:32:52.507Z,8.13
2019-04-29T03:35:22.128Z,8.37
2019-04-29T03:37:51.765Z,7.97
2019-04-29T03:40:21.320Z,8.07
2019-04-29T03:42:51.389Z,8.13
2019-04-29T03:45:21.367Z,8.13
2019-04-29T03:47:51.404Z,7.63
2019-04-29T03:50:20.965Z,8.00
2019-04-29T03:52:50.708Z,7.40
2019-04-29T03:55:37.680Z,8.07
2019-04-29T03:57:51.686Z,8.93
2019-04-29T04:00:44.450Z,8.17
2019-04-29T04:03:18.966Z,8.57
2019-04-29T04:05:50.153Z,8.37
2019-04-29T04:08:30.203Z,8.53
2019-04-29T04:10:59.817Z,7.90
2019-04-29T04:13:29.417Z,8.40
2019-04-29T04:15:58.938Z,8.07
2019-04-29T04:18:30.322Z,8.57
2019-04-29T04:21:00.234Z,8.00
2019-04-29T04:23:29.770Z,7.70
2019-04-29T04:25:59.335Z,7.93
2019-04-29T04:28:29.134Z,8.30
2019-04-29T04:30:58.688Z,7.80
2019-04-29T04:33:28.244Z,7.77
2019-04-29T04:35:57.870Z,7.60
2019-04-29T04:38:27.784Z,7.67
2019-04-29T04:41:04.637Z,8.03
2019-04-29T04:43:35.128Z,7.37
2019-04-29T04:46:04.657Z,8.00
2019-04-29T04:48:34.816Z,7.93
2019-04-29T04:51:04.505Z,8.80
2019-04-29T04:53:34.220Z,9.63
2019-04-29T04:56:04.112Z,13.27
2019-04-29T04:58:34.323Z,8.20
2019-04-29T05:01:03.891Z,7.67
2019-04-29T05:03:33.432Z,8.53
2019-04-29T05:06:03.578Z,8.43
2019-04-29T05:08:33.119Z,8.33
2019-04-29T05:11:02.855Z,8.40
2019-04-29T05:13:32.936Z,8.63
2019-04-29T05:16:02.518Z,8.83
2019-04-29T05:18:32.330Z,9.10
2019-04-29T05:21:01.881Z,18.93
2019-04-29T05:23:31.439Z,12.50
2019-04-29T05:26:02.289Z,9.70
2019-04-29T05:28:31.841Z,8.20
2019-04-29T05:31:01.393Z,9.60
2019-04-29T05:33:32.213Z,10.23
2019-04-29T05:36:11.904Z,8.80
2019-04-29T05:38:43.226Z,8.93
2019-04-29T05:41:12.831Z,8.60
2019-04-29T05:43:42.378Z,8.83
2019-04-29T05:46:17.398Z,9.10
2019-04-29T05:48:45.046Z,17.87
2019-04-29T05:51:32.295Z,16.47
2019-04-29T05:54:06.219Z,10.00
2019-04-29T05:56:35.769Z,8.90
2019-04-29T05:59:08.554Z,8.97
2019-04-29T06:01:37.273Z,9.43
2019-04-29T06:04:07.125Z,9.70
2019-04-29T06:06:36.684Z,10.23
2019-04-29T06:09:11.768Z,9.63
2019-04-29T06:11:40.066Z,9.10
2019-04-29T06:14:09.696Z,9.80
2019-04-29T06:16:39.649Z,9.97
2019-04-29T06:19:09.204Z,10.47
2019-04-29T06:21:38.937Z,10.40
2019-04-29T06:24:08.486Z,10.20
2019-04-29T06:26:38.044Z,10.40
2019-04-29T06:29:08.042Z,9.97
2019-04-29T06:31:37.583Z,9.57
2019-04-29T06:34:07.216Z,10.80
2019-04-29T06:36:36.893Z,10.47
2019-04-29T06:39:08.247Z,10.37
2019-04-29T06:41:40.616Z,11.20
2019-04-29T06:44:15.982Z,10.60
2019-04-29T06:46:40.443Z,10.10
2019-04-29T06:49:10.953Z,10.93
2019-04-29T06:51:40.773Z,10.07
2019-04-29T06:54:10.330Z,11.00
2019-04-29T06:56:39.883Z,10.57
2019-04-29T06:59:12.084Z,11.43
2019-04-29T07:01:41.096Z,10.87
2019-04-29T07:04:10.656Z,10.67
2019-04-29T07:06:40.302Z,11.57
2019-04-29T07:09:09.900Z,11.07
2019-04-29T07:11:39.714Z,11.67
2019-04-29T07:14:09.330Z,10.43
2019-04-29T07:16:39.210Z,10.60
2019-04-29T07:19:08.754Z,11.27
2019-04-29T07:21:41.796Z,11.00
2019-04-29T07:24:09.974Z,11.03
2019-04-29T07:26:39.541Z,11.80
2019-04-29T07:29:09.382Z,12.07
2019-04-29T07:31:38.937Z,11.63
2019-04-29T07:34:08.698Z,11.67
2019-04-29T07:36:38.414Z,11.80
2019-04-29T07:39:09.440Z,11.97
2019-04-29T07:41:39.009Z,12.30
2019-04-29T07:44:08.850Z,12.77
2019-04-29T07:46:56.841Z,12.67
2019-04-29T07:49:23.631Z,13.10
2019-04-29T07:51:54.357Z,11.50
2019-04-29T07:54:23.924Z,12.00
2019-04-29T07:56:53.489Z,13.00
2019-04-29T07:59:23.287Z,12.40
2019-04-29T08:01:55.588Z,11.53
2019-04-29T08:04:24.283Z,11.20
2019-04-29T08:06:55.266Z,11.30
2019-04-29T08:09:25.446Z,11.80
2019-04-29T08:11:55.719Z,11.40
2019-04-29T08:14:29.143Z,12.40
2019-04-29T08:16:58.710Z,11.87
2019-04-29T08:19:29.468Z,12.10
2019-04-29T08:21:59.611Z,12.00
2019-04-29T08:24:29.795Z,11.70
2019-04-29T08:26:59.364Z,11.87
2019-04-29T08:29:30.730Z,11.80
2019-04-29T08:32:02.574Z,12.10
2019-04-29T08:34:32.115Z,11.80
2019-04-29T08:37:01.839Z,11.73
2019-04-29T08:39:31.560Z,12.30
2019-04-29T08:42:03.748Z,12.20
2019-04-29T08:44:54.714Z,11.77
2019-04-29T08:47:30.436Z,12.03
2019-04-29T08:49:58.233Z,10.23
2019-04-29T08:52:27.803Z,9.77
2019-04-29T08:54:57.465Z,9.20
2019-04-29T08:57:27.074Z,8.70
2019-04-29T08:59:56.632Z,9.50
2019-04-29T09:02:34.416Z,9.20
2019-04-29T09:04:57.621Z,9.50
2019-04-29T09:07:27.161Z,9.87
2019-04-29T09:10:01.826Z,8.57
2019-04-29T09:12:29.522Z,8.70
2019-04-29T09:14:59.466Z,8.83
2019-04-29T09:17:29.098Z,8.13
2019-04-29T09:19:59.850Z,8.57
2019-04-29T09:22:31.668Z,11.53
2019-04-29T09:25:11.783Z,12.90
2019-04-29T09:27:45.030Z,9.93
2019-04-29T09:30:17.316Z,10.03
2019-04-29T09:32:46.876Z,11.07
2019-04-29T09:35:17.191Z,9.97
2019-04-29T09:37:46.891Z,9.77
2019-04-29T09:40:27.805Z,9.97
2019-04-29T09:43:14.550Z,10.57
2019-04-29T09:45:53.916Z,10.37
2019-04-29T09:48:22.405Z,10.53
2019-04-29T09:50:52.003Z,10.57
2019-04-29T09:53:21.686Z,10.27
2019-04-29T09:55:51.400Z,18.40
2019-04-29T09:58:20.999Z,8.53
2019-04-29T10:01:13.909Z,8.93
2019-04-29T10:03:55.237Z,8.00
2019-04-29T10:06:26.728Z,8.20
2019-04-29T10:08:56.441Z,8.50
2019-04-29T10:11:26.063Z,7.17
2019-04-29T10:13:56.281Z,7.83
2019-04-29T10:16:36.059Z,7.50
2019-04-29T10:19:07.152Z,6.47
2019-04-29T10:21:37.068Z,8.45
2019-04-29T10:24:07.511Z,8.05
2019-04-29T10:26:37.297Z,7.60
2019-04-29T10:29:08.671Z,8.35
2019-04-29T10:31:38.383Z,8.70
2019-04-29T10:34:09.128Z,8.35
2019-04-29T10:36:39.601Z,6.15
2019-04-29T10:39:30.579Z,6.70
2019-04-29T10:42:04.873Z,7.40
2019-04-29T10:44:39.043Z,7.15
2019-04-29T10:47:30.726Z,8.27
2019-04-29T10:50:05.130Z,8.20
2019-04-29T10:52:38.652Z,8.77
2019-04-29T10:55:08.973Z,9.50
2019-04-29T10:57:39.047Z,7.07
2019-04-29T11:00:23.567Z,6.20
2019-04-29T11:02:53.580Z,5.35
2019-04-29T11:05:30.663Z,5.40
2019-04-29T11:08:04.374Z,5.50
2019-04-29T11:10:34.263Z,5.45
2019-04-29T11:13:04.423Z,4.92
2019-04-29T11:15:35.751Z,5.50
2019-04-29T11:18:06.724Z,4.70
2019-04-29T11:20:36.763Z,7.83
2019-04-29T11:23:16.610Z,5.80
2019-04-29T11:26:02.529Z,6.90
2019-04-29T11:28:32.380Z,5.95
2019-04-29T11:31:01.998Z,5.55
2019-04-29T11:33:35.591Z,5.47
2019-04-29T11:36:05.908Z,5.25
2019-04-29T11:38:38.335Z,4.92
2019-04-29T11:41:12.096Z,4.95
2019-04-29T11:43:39.159Z,5.28
2019-04-29T11:46:09.897Z,5.03
2019-04-29T11:48:40.475Z,5.20
2019-04-29T11:51:17.366Z,5.27
2019-04-29T11:53:47.453Z,5.17
2019-04-29T11:56:17.017Z,5.30
2019-04-29T11:58:51.018Z,5.33
2019-04-29T12:01:42.941Z,5.03
2019-04-29T12:04:33.414Z,5.10
2019-04-29T12:07:02.476Z,5.03
2019-04-29T12:09:32.418Z,5.00
2019-04-29T12:12:02.280Z,5.03
2019-04-29T12:14:39.450Z,4.70
2019-04-29T12:17:20.955Z,5.30
2019-04-29T12:19:55.080Z,4.77
2019-04-29T12:22:30.027Z,10.97
2019-04-29T12:24:56.021Z,5.40
2019-04-29T12:27:28.956Z,5.10
2019-04-29T12:29:59.433Z,4.27
2019-04-29T12:32:32.624Z,4.60
2019-04-29T12:35:06.776Z,5.20
2019-04-29T12:37:36.480Z,4.40
2019-04-29T12:40:14.506Z,4.70
2019-04-29T12:43:03.540Z,4.37
2019-04-29T12:45:49.776Z,4.50
2019-04-29T12:48:24.837Z,4.60
2019-04-29T12:50:55.177Z,5.40
2019-04-29T12:53:22.043Z,4.20
2019-04-29T12:55:53.937Z,4.77
2019-04-29T12:58:25.619Z,4.10
2019-04-29T13:01:00.955Z,4.33
2019-04-29T13:03:39.527Z,4.53
2019-04-29T13:06:09.446Z,4.20
2019-04-29T13:08:40.951Z,3.70
2019-04-29T13:11:10.667Z,3.87
2019-04-29T13:13:40.504Z,3.50
2019-04-29T13:16:21.798Z,4.13
2019-04-29T13:19:11.883Z,3.87
2019-04-29T13:21:39.803Z,4.00
2019-04-29T13:24:22.539Z,4.10
2019-04-29T13:26:42.991Z,4.50
2019-04-29T13:29:26.370Z,4.67
2019-04-29T13:31:43.706Z,4.40
2019-04-29T13:34:24.207Z,4.70
2019-04-29T13:37:05.473Z,5.13
2019-04-29T13:39:17.733Z,3.93
2019-04-29T13:41:57.326Z,4.17
2019-04-29T13:44:19.679Z,4.03
2019-04-29T13:47:07.200Z,4.07
2019-04-29T13:49:38.657Z,3.77
2019-04-29T13:52:08.750Z,4.27
2019-04-29T13:54:42.389Z,3.10
2019-04-29T13:57:15.688Z,2.50
2019-04-29T13:59:49.246Z,2.70
2019-04-29T14:02:22.700Z,2.20
2019-04-29T14:05:00.185Z,2.70
2019-04-29T14:07:29.040Z,2.47
2019-04-29T14:09:58.598Z,2.57
2019-04-29T14:15:00.303Z,2.50
2019-04-29T14:17:31.757Z,2.20
2019-04-29T14:20:01.700Z,2.00
2019-04-29T14:22:31.239Z,2.30
2019-04-29T14:25:01.522Z,1.70
2019-04-29T14:27:31.064Z,2.00
2019-04-29T14:30:02.895Z,2.47
2019-04-29T14:32:35.904Z,2.30
2019-04-29T14:35:07.251Z,2.33
2019-04-29T14:37:37.747Z,2.57
2019-04-29T14:40:10.822Z,2.20
2019-04-29T14:42:57.413Z,6.47
2019-04-29T14:45:38.913Z,4.97
2019-04-29T14:48:13.667Z,3.40
2019-04-29T14:50:44.931Z,2.50
2019-04-29T14:53:14.498Z,2.43
2019-04-29T14:55:44.540Z,2.33
2019-04-29T14:58:14.409Z,2.33
2019-04-29T15:00:50.014Z,2.30
2019-04-29T15:03:22.075Z,2.20
2019-04-29T15:05:51.671Z,2.50
2019-04-29T15:08:22.073Z,2.23
2019-04-29T15:10:53.611Z,2.50
2019-04-29T15:13:25.197Z,2.63
2019-04-29T15:16:14.113Z,2.90
2019-04-29T15:18:49.699Z,3.37
2019-04-29T15:21:31.513Z,2.70
2019-04-29T15:23:51.628Z,2.83
2019-04-29T15:26:21.179Z,2.30
2019-04-29T15:28:54.735Z,2.40
2019-04-29T15:31:25.371Z,3.00
2019-04-29T15:33:55.163Z,3.80
2019-04-29T15:36:24.720Z,2.80
2019-04-29T15:39:08.659Z,2.90
2019-04-29T15:41:31.147Z,3.33
2019-04-29T15:44:07.080Z,2.80
2019-04-29T15:46:31.381Z,3.27
2019-04-29T15:49:00.805Z,3.47
2019-04-29T15:51:30.373Z,12.67
2019-04-29T15:54:01.641Z,10.10
2019-04-29T15:56:33.664Z,3.60
2019-04-29T15:59:08.078Z,3.10
2019-04-29T16:01:34.251Z,2.80
2019-04-29T16:04:05.583Z,2.77
2019-04-29T16:06:42.560Z,2.90
2019-04-29T16:09:23.576Z,3.07
2019-04-29T16:12:13.972Z,2.47
2019-04-29T16:14:39.293Z,2.63
2019-04-29T16:17:08.857Z,2.63
2019-04-29T16:19:38.670Z,3.10
2019-04-29T16:22:13.062Z,2.57
2019-04-29T16:24:39.778Z,2.67
2019-04-29T16:27:10.530Z,2.87
2019-04-29T16:29:40.570Z,6.43
2019-04-29T16:32:11.841Z,7.47
2019-04-29T16:34:44.775Z,4.60
2019-04-29T16:37:19.050Z,3.60
2019-04-29T16:39:44.873Z,3.80
2019-04-29T16:42:18.928Z,3.87
2019-04-29T16:44:49.079Z,4.00
2019-04-29T16:47:19.276Z,4.27
2019-04-29T16:49:48.923Z,4.13
2019-04-29T16:52:18.665Z,4.23
2019-04-29T16:54:48.210Z,3.90
2019-04-29T16:57:17.874Z,4.03
2019-04-29T16:59:47.426Z,4.27
2019-04-29T17:02:19.627Z,4.20
2019-04-29T17:04:49.654Z,4.43
2019-04-29T17:07:19.281Z,4.87
2019-04-29T17:09:51.011Z,4.70
2019-04-29T17:12:20.651Z,15.20
2019-04-29T17:15:04.227Z,5.47
2019-04-29T17:17:28.921Z,4.53
2019-04-29T17:19:55.225Z,4.47
2019-04-29T17:22:27.180Z,5.10
2019-04-29T17:24:56.234Z,4.13
2019-04-29T17:27:35.103Z,4.90
2019-04-29T17:30:18.837Z,4.10
2019-04-29T17:32:50.831Z,4.70
2019-04-29T17:35:22.214Z,4.53
2019-04-29T17:37:52.520Z,5.30
2019-04-29T17:40:23.776Z,5.00
2019-04-29T17:42:55.020Z,5.30
2019-04-29T17:45:30.843Z,5.60
2019-04-29T17:47:59.224Z,6.17
2019-04-29T17:50:39.211Z,10.07
2019-04-29T17:53:09.482Z,7.53
2019-04-29T17:55:41.106Z,5.67
2019-04-29T17:58:19.774Z,5.97
2019-04-29T18:01:07.968Z,5.83
2019-04-29T18:03:51.354Z,5.73
2019-04-29T18:06:24.210Z,6.03
2019-04-29T18:09:12.115Z,5.97
2019-04-29T18:11:50.478Z,6.27
2019-04-29T18:14:14.966Z,8.10
2019-04-29T18:16:47.851Z,7.67
2019-04-29T18:19:17.771Z,6.23
2019-04-29T18:22:01.540Z,6.53
2019-04-29T18:24:35.928Z,6.70
2019-04-29T18:27:06.081Z,5.97
2019-04-29T18:29:41.448Z,5.87
2019-04-29T18:32:08.084Z,6.13
2019-04-29T18:34:37.770Z,6.30
2019-04-29T18:37:08.032Z,7.00
2019-04-29T18:39:38.023Z,6.43
2019-04-29T18:42:07.733Z,6.97
2019-04-29T18:44:42.085Z,6.50
2019-04-29T18:47:19.706Z,6.83
2019-04-29T18:49:39.963Z,6.97
2019-04-29T18:52:11.439Z,7.33
2019-04-29T18:54:41.126Z,9.87
2019-04-29T18:57:11.178Z,10.70
2019-04-29T18:59:42.073Z,10.00
2019-04-29T19:02:12.022Z,9.43
2019-04-29T19:04:53.380Z,8.40
2019-04-29T19:07:20.913Z,8.83
2019-04-29T19:09:50.548Z,9.03
2019-04-29T19:12:20.234Z,9.43
2019-04-29T19:14:50.206Z,9.87
2019-04-29T19:17:21.669Z,10.43
2019-04-29T19:19:51.457Z,10.17
2019-04-29T19:22:21.384Z,10.50
2019-04-29T19:24:50.940Z,10.27
2019-04-29T19:27:20.619Z,10.60
2019-04-29T19:29:50.175Z,10.73
2019-04-29T19:32:23.096Z,9.97
2019-04-29T19:34:54.936Z,10.70
2019-04-29T19:37:25.386Z,10.10
2019-04-29T19:39:57.115Z,15.53
2019-04-29T19:42:29.727Z,11.47
2019-04-29T19:44:57.753Z,11.17
2019-04-29T19:47:28.099Z,10.47
2019-04-29T19:49:57.883Z,10.63
2019-04-29T19:52:31.766Z,10.43
2019-04-29T19:55:01.705Z,10.77
2019-04-29T19:57:30.163Z,11.93
2019-04-29T20:00:00.469Z,10.97
2019-04-29T20:02:30.933Z,11.30
2019-04-29T20:05:05.225Z,11.13
2019-04-29T20:07:40.852Z,10.30
2019-04-29T20:10:10.077Z,9.80
2019-04-29T20:12:39.495Z,7.37
2019-04-29T20:15:10.862Z,7.27
2019-04-29T20:17:58.803Z,7.87
2019-04-29T20:20:35.062Z,6.67
2019-04-29T20:23:03.313Z,7.27
2019-04-29T20:25:38.072Z,7.20
2019-04-29T20:28:08.067Z,7.60
2019-04-29T20:30:35.882Z,7.83
2019-04-29T20:33:11.085Z,7.63
2019-04-29T20:35:40.394Z,8.13
2019-04-29T20:38:09.302Z,7.93
2019-04-29T20:40:43.029Z,8.87
2019-04-29T20:43:10.902Z,9.13
2019-04-29T20:45:40.545Z,9.17
2019-04-29T20:48:11.183Z,8.90
2019-04-29T20:50:46.108Z,9.70
2019-04-29T20:53:15.606Z,9.53
2019-04-29T20:55:46.209Z,9.47
2019-04-29T20:58:16.021Z,8.80
2019-04-29T21:00:45.986Z,8.73
2019-04-29T21:03:27.289Z,8.57
2019-04-29T21:05:50.233Z,9.80
2019-04-29T21:08:19.566Z,8.47
2019-04-29T21:10:51.010Z,9.33
2019-04-29T21:13:25.737Z,9.00
2019-04-29T21:16:06.084Z,9.67
2019-04-29T21:18:38.720Z,9.73
2019-04-29T21:21:08.388Z,9.57
2019-04-29T21:23:38.732Z,10.00
2019-04-29T21:26:09.725Z,10.37
2019-04-29T21:28:41.794Z,10.00
2019-04-29T21:31:11.658Z,10.23
2019-04-29T21:33:46.058Z,12.43
2019-04-29T21:36:18.316Z,13.03
2019-04-29T21:39:06.143Z,11.43
2019-04-29T21:41:43.487Z,12.00
2019-04-29T21:44:13.057Z,11.35
2019-04-29T21:46:42.739Z,12.23
2019-04-29T21:49:12.743Z,12.07
2019-04-29T21:51:48.440Z,12.17
2019-04-29T21:54:15.704Z,11.23
2019-04-29T21:56:47.998Z,12.20
2019-04-29T21:59:16.913Z,11.30
2019-04-29T22:01:47.132Z,11.50
2019-04-29T22:04:16.785Z,11.50
2019-04-29T22:06:47.481Z,11.80
2019-04-29T22:09:19.598Z,12.37
2019-04-29T22:11:49.652Z,11.87
2019-04-29T22:14:26.742Z,12.07
2019-04-29T22:16:57.107Z,12.40
2019-04-29T22:19:28.238Z,12.47
2019-04-29T22:22:01.523Z,12.00
2019-04-29T22:24:29.229Z,12.20
2019-04-29T22:27:03.772Z,12.50
2019-04-29T22:29:31.975Z,12.20
2019-04-29T22:32:07.558Z,13.53
2019-04-29T22:34:36.629Z,13.53
2019-04-29T22:37:11.848Z,13.20
2019-04-29T22:39:41.434Z,12.87
2019-04-29T22:42:12.740Z,13.40
2019-04-29T22:44:42.311Z,13.50
2019-04-29T22:47:12.407Z,13.70
2019-04-29T22:49:42.036Z,13.23
2019-04-29T22:52:11.605Z,13.00
2019-04-29T22:54:41.275Z,13.27
2019-04-29T22:57:11.187Z,13.17
2019-04-29T22:59:40.855Z,12.67
2019-04-29T23:02:13.051Z,13.20
2019-04-29T23:04:49.083Z,13.23
2019-04-29T23:07:17.698Z,13.37
2019-04-29T23:09:46.383Z,14.10
2019-04-29T23:12:18.636Z,13.23
2019-04-29T23:14:48.525Z,13.27
2019-04-29T23:17:18.149Z,13.60
2019-04-29T23:19:50.642Z,12.97
2019-04-29T23:22:37.708Z,13.97
2019-04-29T23:25:13.467Z,13.53
2019-04-29T23:27:43.136Z,13.30
2019-04-29T23:30:18.164Z,13.87
2019-04-29T23:32:50.896Z,13.53
2019-04-29T23:35:20.564Z,14.27
2019-04-29T23:37:50.252Z,14.37
2019-04-29T23:40:19.820Z,15.13
2019-04-29T23:42:49.820Z,15.23
2019-04-29T23:45:20.957Z,16.17
2019-04-29T23:47:50.759Z,15.13
2019-04-29T23:50:20.448Z,15.73
2019-04-29T23:52:51.757Z,16.17
2019-04-29T23:55:25.645Z,16.13
2019-04-29T23:58:02.852Z,17.93
